sensor_id;sensor_type;location;lat;lon;timestamp;P1;durP1;ratioP1;P2;durP2;ratioP2
78778;SDS011;68121;52.404;5.318;2023-09-07T00:00:44;4.85;;;2.53;;
78778;SDS011;68121;52.404;5.318;2023-09-07T00:03:12;4.30;;;2.65;;
78778;SDS011;68121;52.404;5.318;2023-09-07T00:05:39;3.72;;;2.70;;
78778;SDS011;68121;52.404;5.318;2023-09-07T00:08:05;4.07;;;2.67;;
78778;SDS011;68121;52.404;5.318;2023-09-07T00:10:34;5.07;;;2.65;;
78778;SDS011;68121;52.404;5.318;2023-09-07T00:13:01;4.20;;;2.90;;
78778;SDS011;68121;52.404;5.318;2023-09-07T00:15:28;5.78;;;2.90;;
78778;SDS011;68121;52.404;5.318;2023-09-07T00:17:55;4.55;;;2.60;;
78778;SDS011;68121;52.404;5.318;2023-09-07T00:20:22;3.83;;;2.80;;
78778;SDS011;68121;52.404;5.318;2023-09-07T00:22:49;3.80;;;2.33;;
78778;SDS011;68121;52.404;5.318;2023-09-07T00:25:15;4.68;;;2.83;;
78778;SDS011;68121;52.404;5.318;2023-09-07T00:27:41;3.55;;;2.47;;
78778;SDS011;68121;52.404;5.318;2023-09-07T00:30:07;3.65;;;2.53;;
78778;SDS011;68121;52.404;5.318;2023-09-07T00:32:37;5.80;;;3.38;;
78778;SDS011;68121;52.404;5.318;2023-09-07T00:35:03;4.90;;;3.38;;
78778;SDS011;68121;52.404;5.318;2023-09-07T00:37:31;7.32;;;3.10;;
78778;SDS011;68121;52.404;5.318;2023-09-07T00:39:57;5.93;;;2.95;;
78778;SDS011;68121;52.404;5.318;2023-09-07T00:42:23;5.05;;;3.00;;
78778;SDS011;68121;52.404;5.318;2023-09-07T00:44:49;4.10;;;2.85;;
78778;SDS011;68121;52.404;5.318;2023-09-07T00:47:16;4.03;;;2.85;;
78778;SDS011;68121;52.404;5.318;2023-09-07T00:49:42;5.80;;;2.80;;
78778;SDS011;68121;52.404;5.318;2023-09-07T00:52:08;4.70;;;3.13;;
78778;SDS011;68121;52.404;5.318;2023-09-07T00:54:37;5.57;;;3.45;;
78778;SDS011;68121;52.404;5.318;2023-09-07T00:57:06;4.70;;;3.00;;
78778;SDS011;68121;52.404;5.318;2023-09-07T00:59:32;4.43;;;3.17;;
78778;SDS011;68121;52.404;5.318;2023-09-07T01:01:59;5.22;;;3.50;;
78778;SDS011;68121;52.404;5.318;2023-09-07T01:04:26;5.20;;;3.30;;
78778;SDS011;68121;52.404;5.318;2023-09-07T01:07:40;4.82;;;2.97;;
78778;SDS011;68121;52.404;5.318;2023-09-07T01:09:51;3.90;;;3.20;;
78778;SDS011;68121;52.404;5.318;2023-09-07T01:12:21;4.50;;;3.17;;
78778;SDS011;68121;52.404;5.318;2023-09-07T01:14:47;4.85;;;3.28;;
78778;SDS011;68121;52.404;5.318;2023-09-07T01:17:13;5.70;;;3.55;;
78778;SDS011;68121;52.404;5.318;2023-09-07T01:19:40;4.75;;;3.17;;
78778;SDS011;68121;52.404;5.318;2023-09-07T01:22:08;4.05;;;2.97;;
78778;SDS011;68121;52.404;5.318;2023-09-07T01:24:35;4.10;;;3.10;;
78778;SDS011;68121;52.404;5.318;2023-09-07T01:27:04;4.50;;;2.97;;
78778;SDS011;68121;52.404;5.318;2023-09-07T01:29:30;5.65;;;3.15;;
78778;SDS011;68121;52.404;5.318;2023-09-07T01:31:57;4.03;;;3.33;;
78778;SDS011;68121;52.404;5.318;2023-09-07T01:34:23;3.65;;;2.95;;
78778;SDS011;68121;52.404;5.318;2023-09-07T01:36:49;4.63;;;3.22;;
78778;SDS011;68121;52.404;5.318;2023-09-07T01:39:16;4.47;;;3.05;;
78778;SDS011;68121;52.404;5.318;2023-09-07T01:41:42;5.75;;;3.72;;
78778;SDS011;68121;52.404;5.318;2023-09-07T01:44:09;4.95;;;3.85;;
78778;SDS011;68121;52.404;5.318;2023-09-07T01:46:35;5.78;;;3.63;;
78778;SDS011;68121;52.404;5.318;2023-09-07T01:49:03;6.50;;;3.42;;
78778;SDS011;68121;52.404;5.318;2023-09-07T01:51:29;4.63;;;3.60;;
78778;SDS011;68121;52.404;5.318;2023-09-07T01:53:55;6.15;;;3.20;;
78778;SDS011;68121;52.404;5.318;2023-09-07T01:56:22;5.53;;;3.53;;
78778;SDS011;68121;52.404;5.318;2023-09-07T01:58:48;7.15;;;4.25;;
78778;SDS011;68121;52.404;5.318;2023-09-07T02:01:26;3.90;;;3.22;;
78778;SDS011;68121;52.404;5.318;2023-09-07T02:03:55;12.65;;;4.55;;
78778;SDS011;68121;52.404;5.318;2023-09-07T02:06:21;4.25;;;3.55;;
78778;SDS011;68121;52.404;5.318;2023-09-07T02:08:47;4.53;;;3.28;;
78778;SDS011;68121;52.404;5.318;2023-09-07T02:11:14;3.67;;;2.85;;
78778;SDS011;68121;52.404;5.318;2023-09-07T02:13:43;5.28;;;3.28;;
78778;SDS011;68121;52.404;5.318;2023-09-07T02:16:11;7.15;;;3.35;;
78778;SDS011;68121;52.404;5.318;2023-09-07T02:18:37;4.35;;;3.33;;
78778;SDS011;68121;52.404;5.318;2023-09-07T02:21:05;6.75;;;3.47;;
78778;SDS011;68121;52.404;5.318;2023-09-07T02:23:31;4.60;;;2.78;;
78778;SDS011;68121;52.404;5.318;2023-09-07T02:26:00;4.95;;;3.80;;
78778;SDS011;68121;52.404;5.318;2023-09-07T02:28:26;4.32;;;3.28;;
78778;SDS011;68121;52.404;5.318;2023-09-07T02:30:52;7.13;;;3.60;;
78778;SDS011;68121;52.404;5.318;2023-09-07T02:33:18;4.45;;;3.13;;
78778;SDS011;68121;52.404;5.318;2023-09-07T02:35:45;9.25;;;3.30;;
78778;SDS011;68121;52.404;5.318;2023-09-07T02:38:14;3.58;;;2.80;;
78778;SDS011;68121;52.404;5.318;2023-09-07T02:40:43;3.67;;;2.88;;
78778;SDS011;68121;52.404;5.318;2023-09-07T02:43:10;5.10;;;3.10;;
78778;SDS011;68121;52.404;5.318;2023-09-07T02:45:36;4.10;;;3.15;;
78778;SDS011;68121;52.404;5.318;2023-09-07T02:48:02;7.22;;;3.53;;
78778;SDS011;68121;52.404;5.318;2023-09-07T02:50:29;5.93;;;3.60;;
78778;SDS011;68121;52.404;5.318;2023-09-07T02:52:57;5.00;;;3.50;;
78778;SDS011;68121;52.404;5.318;2023-09-07T02:55:23;4.82;;;3.20;;
78778;SDS011;68121;52.404;5.318;2023-09-07T02:57:49;5.65;;;3.90;;
78778;SDS011;68121;52.404;5.318;2023-09-07T03:00:15;6.13;;;3.67;;
78778;SDS011;68121;52.404;5.318;2023-09-07T03:02:43;5.32;;;3.88;;
78778;SDS011;68121;52.404;5.318;2023-09-07T03:05:09;4.85;;;3.40;;
78778;SDS011;68121;52.404;5.318;2023-09-07T03:07:36;5.90;;;3.83;;
78778;SDS011;68121;52.404;5.318;2023-09-07T03:10:02;4.68;;;3.58;;
78778;SDS011;68121;52.404;5.318;2023-09-07T03:12:28;5.65;;;3.58;;
78778;SDS011;68121;52.404;5.318;2023-09-07T03:14:55;6.47;;;3.50;;
78778;SDS011;68121;52.404;5.318;2023-09-07T03:17:21;6.03;;;3.53;;
78778;SDS011;68121;52.404;5.318;2023-09-07T03:19:48;5.63;;;3.45;;
78778;SDS011;68121;52.404;5.318;2023-09-07T03:22:14;6.38;;;3.38;;
78778;SDS011;68121;52.404;5.318;2023-09-07T03:24:40;6.97;;;4.07;;
78778;SDS011;68121;52.404;5.318;2023-09-07T03:27:06;4.55;;;3.47;;
78778;SDS011;68121;52.404;5.318;2023-09-07T03:29:32;5.93;;;3.92;;
78778;SDS011;68121;52.404;5.318;2023-09-07T03:32:01;6.50;;;3.60;;
78778;SDS011;68121;52.404;5.318;2023-09-07T03:34:27;7.25;;;3.92;;
78778;SDS011;68121;52.404;5.318;2023-09-07T03:36:54;7.63;;;3.83;;
78778;SDS011;68121;52.404;5.318;2023-09-07T03:39:20;6.70;;;3.50;;
78778;SDS011;68121;52.404;5.318;2023-09-07T03:41:49;4.85;;;3.35;;
78778;SDS011;68121;52.404;5.318;2023-09-07T03:44:15;4.00;;;3.22;;
78778;SDS011;68121;52.404;5.318;2023-09-07T03:46:41;5.47;;;3.75;;
78778;SDS011;68121;52.404;5.318;2023-09-07T03:49:07;7.90;;;4.45;;
78778;SDS011;68121;52.404;5.318;2023-09-07T03:51:33;6.05;;;4.80;;
78778;SDS011;68121;52.404;5.318;2023-09-07T03:53:59;6.22;;;3.97;;
78778;SDS011;68121;52.404;5.318;2023-09-07T03:56:26;6.07;;;3.88;;
78778;SDS011;68121;52.404;5.318;2023-09-07T03:58:52;6.05;;;4.28;;
78778;SDS011;68121;52.404;5.318;2023-09-07T04:01:18;8.65;;;4.00;;
78778;SDS011;68121;52.404;5.318;2023-09-07T04:03:44;6.80;;;4.32;;
78778;SDS011;68121;52.404;5.318;2023-09-07T04:06:10;6.68;;;4.25;;
78778;SDS011;68121;52.404;5.318;2023-09-07T04:08:36;15.15;;;4.50;;
78778;SDS011;68121;52.404;5.318;2023-09-07T04:11:03;6.13;;;3.92;;
78778;SDS011;68121;52.404;5.318;2023-09-07T04:13:30;5.45;;;4.35;;
78778;SDS011;68121;52.404;5.318;2023-09-07T04:16:01;8.18;;;4.25;;
78778;SDS011;68121;52.404;5.318;2023-09-07T04:18:27;7.57;;;3.63;;
78778;SDS011;68121;52.404;5.318;2023-09-07T04:20:53;6.75;;;4.57;;
78778;SDS011;68121;52.404;5.318;2023-09-07T04:23:29;5.80;;;4.18;;
78778;SDS011;68121;52.404;5.318;2023-09-07T04:26:03;6.50;;;4.13;;
78778;SDS011;68121;52.404;5.318;2023-09-07T04:28:33;7.57;;;4.20;;
78778;SDS011;68121;52.404;5.318;2023-09-07T04:30:59;7.25;;;4.50;;
78778;SDS011;68121;52.404;5.318;2023-09-07T04:33:26;9.48;;;4.97;;
78778;SDS011;68121;52.404;5.318;2023-09-07T04:35:52;6.63;;;4.40;;
78778;SDS011;68121;52.404;5.318;2023-09-07T04:38:18;6.88;;;4.40;;
78778;SDS011;68121;52.404;5.318;2023-09-07T04:40:44;7.18;;;4.20;;
78778;SDS011;68121;52.404;5.318;2023-09-07T04:43:11;7.60;;;4.35;;
78778;SDS011;68121;52.404;5.318;2023-09-07T04:45:45;6.20;;;4.13;;
78778;SDS011;68121;52.404;5.318;2023-09-07T04:48:12;10.15;;;4.32;;
78778;SDS011;68121;52.404;5.318;2023-09-07T04:50:38;7.35;;;4.80;;
78778;SDS011;68121;52.404;5.318;2023-09-07T04:53:04;8.10;;;5.22;;
78778;SDS011;68121;52.404;5.318;2023-09-07T04:55:30;7.47;;;4.15;;
78778;SDS011;68121;52.404;5.318;2023-09-07T04:57:56;7.28;;;4.80;;
78778;SDS011;68121;52.404;5.318;2023-09-07T05:00:22;8.00;;;5.05;;
78778;SDS011;68121;52.404;5.318;2023-09-07T05:02:48;8.82;;;5.78;;
78778;SDS011;68121;52.404;5.318;2023-09-07T05:05:14;5.95;;;4.30;;
78778;SDS011;68121;52.404;5.318;2023-09-07T05:07:40;6.63;;;4.13;;
78778;SDS011;68121;52.404;5.318;2023-09-07T05:10:06;7.40;;;4.60;;
78778;SDS011;68121;52.404;5.318;2023-09-07T05:12:34;8.40;;;5.45;;
78778;SDS011;68121;52.404;5.318;2023-09-07T05:15:00;6.13;;;4.55;;
78778;SDS011;68121;52.404;5.318;2023-09-07T05:17:26;7.50;;;4.10;;
78778;SDS011;68121;52.404;5.318;2023-09-07T05:19:52;7.60;;;4.30;;
78778;SDS011;68121;52.404;5.318;2023-09-07T05:22:19;5.72;;;4.18;;
78778;SDS011;68121;52.404;5.318;2023-09-07T05:24:47;7.22;;;4.65;;
78778;SDS011;68121;52.404;5.318;2023-09-07T05:27:13;11.60;;;4.88;;
78778;SDS011;68121;52.404;5.318;2023-09-07T05:29:39;8.10;;;4.82;;
78778;SDS011;68121;52.404;5.318;2023-09-07T05:32:05;6.38;;;4.40;;
78778;SDS011;68121;52.404;5.318;2023-09-07T05:34:31;10.23;;;5.13;;
78778;SDS011;68121;52.404;5.318;2023-09-07T05:36:57;7.10;;;5.18;;
78778;SDS011;68121;52.404;5.318;2023-09-07T05:39:26;9.60;;;5.13;;
78778;SDS011;68121;52.404;5.318;2023-09-07T05:41:52;9.98;;;5.50;;
78778;SDS011;68121;52.404;5.318;2023-09-07T05:44:18;7.97;;;5.05;;
78778;SDS011;68121;52.404;5.318;2023-09-07T05:46:44;9.07;;;5.47;;
78778;SDS011;68121;52.404;5.318;2023-09-07T05:49:10;11.93;;;5.50;;
78778;SDS011;68121;52.404;5.318;2023-09-07T05:51:36;7.72;;;5.55;;
78778;SDS011;68121;52.404;5.318;2023-09-07T05:54:02;27.80;;;10.48;;
78778;SDS011;68121;52.404;5.318;2023-09-07T05:56:29;17.88;;;8.63;;
78778;SDS011;68121;52.404;5.318;2023-09-07T05:58:55;15.63;;;7.32;;
78778;SDS011;68121;52.404;5.318;2023-09-07T06:01:21;9.88;;;5.32;;
78778;SDS011;68121;52.404;5.318;2023-09-07T06:03:47;6.85;;;5.00;;
78778;SDS011;68121;52.404;5.318;2023-09-07T06:06:14;7.63;;;4.85;;
78778;SDS011;68121;52.404;5.318;2023-09-07T06:08:40;8.88;;;4.68;;
78778;SDS011;68121;52.404;5.318;2023-09-07T06:11:06;7.47;;;5.03;;
78778;SDS011;68121;52.404;5.318;2023-09-07T06:13:32;6.93;;;4.50;;
78778;SDS011;68121;52.404;5.318;2023-09-07T06:15:58;7.22;;;4.95;;
78778;SDS011;68121;52.404;5.318;2023-09-07T06:18:26;9.43;;;5.10;;
78778;SDS011;68121;52.404;5.318;2023-09-07T06:20:52;8.88;;;5.25;;
78778;SDS011;68121;52.404;5.318;2023-09-07T06:23:18;6.28;;;4.97;;
78778;SDS011;68121;52.404;5.318;2023-09-07T06:25:44;7.90;;;5.13;;
78778;SDS011;68121;52.404;5.318;2023-09-07T06:28:10;7.35;;;4.88;;
78778;SDS011;68121;52.404;5.318;2023-09-07T06:30:37;8.30;;;4.65;;
78778;SDS011;68121;52.404;5.318;2023-09-07T06:33:04;7.13;;;5.20;;
78778;SDS011;68121;52.404;5.318;2023-09-07T06:35:30;7.25;;;5.13;;
78778;SDS011;68121;52.404;5.318;2023-09-07T06:37:56;5.88;;;4.22;;
78778;SDS011;68121;52.404;5.318;2023-09-07T06:40:22;8.73;;;5.20;;
78778;SDS011;68121;52.404;5.318;2023-09-07T06:42:48;6.90;;;4.93;;
78778;SDS011;68121;52.404;5.318;2023-09-07T06:45:14;7.05;;;4.88;;
78778;SDS011;68121;52.404;5.318;2023-09-07T06:47:42;7.68;;;4.90;;
78778;SDS011;68121;52.404;5.318;2023-09-07T06:50:08;7.78;;;5.53;;
78778;SDS011;68121;52.404;5.318;2023-09-07T06:52:35;7.38;;;4.90;;
78778;SDS011;68121;52.404;5.318;2023-09-07T06:55:01;6.28;;;4.57;;
78778;SDS011;68121;52.404;5.318;2023-09-07T06:57:27;7.47;;;4.88;;
78778;SDS011;68121;52.404;5.318;2023-09-07T06:59:54;8.82;;;5.38;;
78778;SDS011;68121;52.404;5.318;2023-09-07T07:02:20;10.80;;;6.13;;
78778;SDS011;68121;52.404;5.318;2023-09-07T07:04:46;6.10;;;3.85;;
78778;SDS011;68121;52.404;5.318;2023-09-07T07:07:12;7.15;;;5.15;;
78778;SDS011;68121;52.404;5.318;2023-09-07T07:09:38;8.02;;;5.25;;
78778;SDS011;68121;52.404;5.318;2023-09-07T07:12:04;7.25;;;4.95;;
78778;SDS011;68121;52.404;5.318;2023-09-07T07:14:30;8.25;;;5.38;;
78778;SDS011;68121;52.404;5.318;2023-09-07T07:16:56;7.28;;;5.15;;
78778;SDS011;68121;52.404;5.318;2023-09-07T07:19:22;10.65;;;4.50;;
78778;SDS011;68121;52.404;5.318;2023-09-07T07:21:50;7.60;;;4.00;;
78778;SDS011;68121;52.404;5.318;2023-09-07T07:24:16;7.90;;;5.50;;
78778;SDS011;68121;52.404;5.318;2023-09-07T07:26:43;6.00;;;4.50;;
78778;SDS011;68121;52.404;5.318;2023-09-07T07:29:09;7.93;;;4.70;;
78778;SDS011;68121;52.404;5.318;2023-09-07T07:31:35;7.45;;;4.35;;
78778;SDS011;68121;52.404;5.318;2023-09-07T07:34:01;8.48;;;5.13;;
78778;SDS011;68121;52.404;5.318;2023-09-07T07:36:27;8.40;;;4.85;;
78778;SDS011;68121;52.404;5.318;2023-09-07T07:38:53;7.90;;;4.63;;
78778;SDS011;68121;52.404;5.318;2023-09-07T07:41:20;12.07;;;5.85;;
78778;SDS011;68121;52.404;5.318;2023-09-07T07:43:46;7.20;;;4.93;;
78778;SDS011;68121;52.404;5.318;2023-09-07T07:46:12;8.15;;;4.93;;
78778;SDS011;68121;52.404;5.318;2023-09-07T07:48:41;8.73;;;5.07;;
78778;SDS011;68121;52.404;5.318;2023-09-07T07:51:07;6.95;;;4.82;;
78778;SDS011;68121;52.404;5.318;2023-09-07T07:53:34;8.38;;;4.78;;
78778;SDS011;68121;52.404;5.318;2023-09-07T07:56:00;7.55;;;4.63;;
78778;SDS011;68121;52.404;5.318;2023-09-07T07:58:26;6.45;;;4.35;;
78778;SDS011;68121;52.404;5.318;2023-09-07T08:00:56;6.38;;;4.80;;
78778;SDS011;68121;52.404;5.318;2023-09-07T08:03:24;7.70;;;4.95;;
78778;SDS011;68121;52.404;5.318;2023-09-07T08:05:50;6.07;;;4.75;;
78778;SDS011;68121;52.404;5.318;2023-09-07T08:08:16;6.20;;;4.45;;
78778;SDS011;68121;52.404;5.318;2023-09-07T08:10:44;7.68;;;5.18;;
78778;SDS011;68121;52.404;5.318;2023-09-07T08:13:11;7.22;;;4.00;;
78778;SDS011;68121;52.404;5.318;2023-09-07T08:15:37;6.03;;;4.20;;
78778;SDS011;68121;52.404;5.318;2023-09-07T08:18:03;5.82;;;4.47;;
78778;SDS011;68121;52.404;5.318;2023-09-07T08:20:31;8.82;;;5.00;;
78778;SDS011;68121;52.404;5.318;2023-09-07T08:22:58;7.30;;;4.78;;
78778;SDS011;68121;52.404;5.318;2023-09-07T08:25:24;6.07;;;4.00;;
78778;SDS011;68121;52.404;5.318;2023-09-07T08:27:51;6.57;;;3.88;;
78778;SDS011;68121;52.404;5.318;2023-09-07T08:30:21;5.22;;;3.65;;
78778;SDS011;68121;52.404;5.318;2023-09-07T08:32:50;7.10;;;4.60;;
78778;SDS011;68121;52.404;5.318;2023-09-07T08:35:17;6.88;;;4.40;;
78778;SDS011;68121;52.404;5.318;2023-09-07T08:37:43;5.63;;;4.15;;
78778;SDS011;68121;52.404;5.318;2023-09-07T08:40:09;7.22;;;4.45;;
78778;SDS011;68121;52.404;5.318;2023-09-07T08:42:36;7.10;;;4.45;;
78778;SDS011;68121;52.404;5.318;2023-09-07T08:45:04;5.70;;;4.05;;
78778;SDS011;68121;52.404;5.318;2023-09-07T08:47:34;9.85;;;3.53;;
78778;SDS011;68121;52.404;5.318;2023-09-07T08:50:01;5.28;;;4.00;;
78778;SDS011;68121;52.404;5.318;2023-09-07T08:52:29;7.25;;;4.70;;
78778;SDS011;68121;52.404;5.318;2023-09-07T08:54:56;7.20;;;4.00;;
78778;SDS011;68121;52.404;5.318;2023-09-07T08:57:24;6.15;;;3.80;;
78778;SDS011;68121;52.404;5.318;2023-09-07T08:59:52;7.85;;;5.30;;
78778;SDS011;68121;52.404;5.318;2023-09-07T09:02:19;5.13;;;3.72;;
78778;SDS011;68121;52.404;5.318;2023-09-07T09:04:46;4.80;;;3.65;;
78778;SDS011;68121;52.404;5.318;2023-09-07T09:07:12;7.20;;;3.92;;
78778;SDS011;68121;52.404;5.318;2023-09-07T09:09:38;6.63;;;3.67;;
78778;SDS011;68121;52.404;5.318;2023-09-07T09:12:11;6.03;;;3.72;;
78778;SDS011;68121;52.404;5.318;2023-09-07T09:14:41;6.10;;;4.30;;
78778;SDS011;68121;52.404;5.318;2023-09-07T09:17:13;5.65;;;3.72;;
78778;SDS011;68121;52.404;5.318;2023-09-07T09:19:40;4.57;;;3.65;;
78778;SDS011;68121;52.404;5.318;2023-09-07T09:22:11;6.05;;;3.95;;
78778;SDS011;68121;52.404;5.318;2023-09-07T09:24:37;5.25;;;3.75;;
78778;SDS011;68121;52.404;5.318;2023-09-07T09:27:03;9.32;;;3.72;;
78778;SDS011;68121;52.404;5.318;2023-09-07T09:29:32;4.53;;;3.95;;
78778;SDS011;68121;52.404;5.318;2023-09-07T09:32:00;7.28;;;3.47;;
78778;SDS011;68121;52.404;5.318;2023-09-07T09:34:36;4.32;;;3.50;;
78778;SDS011;68121;52.404;5.318;2023-09-07T09:37:03;4.80;;;3.28;;
78778;SDS011;68121;52.404;5.318;2023-09-07T09:39:30;6.70;;;3.28;;
78778;SDS011;68121;52.404;5.318;2023-09-07T09:41:56;8.75;;;3.80;;
78778;SDS011;68121;52.404;5.318;2023-09-07T09:44:22;6.10;;;3.53;;
78778;SDS011;68121;52.404;5.318;2023-09-07T09:46:53;4.55;;;3.20;;
78778;SDS011;68121;52.404;5.318;2023-09-07T09:49:21;3.22;;;2.92;;
78778;SDS011;68121;52.404;5.318;2023-09-07T09:51:50;4.28;;;3.30;;
78778;SDS011;68121;52.404;5.318;2023-09-07T09:54:17;4.45;;;3.15;;
78778;SDS011;68121;52.404;5.318;2023-09-07T09:56:44;4.55;;;3.58;;
78778;SDS011;68121;52.404;5.318;2023-09-07T09:59:11;4.88;;;3.47;;
78778;SDS011;68121;52.404;5.318;2023-09-07T10:01:46;8.25;;;3.60;;
78778;SDS011;68121;52.404;5.318;2023-09-07T10:04:14;4.53;;;3.30;;
78778;SDS011;68121;52.404;5.318;2023-09-07T10:06:58;7.47;;;3.92;;
78778;SDS011;68121;52.404;5.318;2023-09-07T10:09:33;5.70;;;3.40;;
78778;SDS011;68121;52.404;5.318;2023-09-07T10:12:02;6.88;;;3.70;;
78778;SDS011;68121;52.404;5.318;2023-09-07T10:14:39;4.15;;;2.80;;
78778;SDS011;68121;52.404;5.318;2023-09-07T10:17:06;4.25;;;3.00;;
78778;SDS011;68121;52.404;5.318;2023-09-07T10:19:34;4.63;;;3.13;;
78778;SDS011;68121;52.404;5.318;2023-09-07T10:22:02;5.55;;;3.08;;
78778;SDS011;68121;52.404;5.318;2023-09-07T10:24:29;3.75;;;2.85;;
78778;SDS011;68121;52.404;5.318;2023-09-07T10:27:07;9.25;;;3.30;;
78778;SDS011;68121;52.404;5.318;2023-09-07T10:29:45;3.55;;;3.00;;
78778;SDS011;68121;52.404;5.318;2023-09-07T10:32:20;6.10;;;2.83;;
78778;SDS011;68121;52.404;5.318;2023-09-07T10:34:46;3.88;;;2.88;;
78778;SDS011;68121;52.404;5.318;2023-09-07T10:37:13;5.53;;;3.40;;
78778;SDS011;68121;52.404;5.318;2023-09-07T10:39:41;5.43;;;2.85;;
78778;SDS011;68121;52.404;5.318;2023-09-07T10:42:19;4.88;;;3.00;;
78778;SDS011;68121;52.404;5.318;2023-09-07T10:44:47;4.60;;;3.20;;
78778;SDS011;68121;52.404;5.318;2023-09-07T10:47:13;3.58;;;2.80;;
78778;SDS011;68121;52.404;5.318;2023-09-07T10:49:39;3.88;;;2.92;;
78778;SDS011;68121;52.404;5.318;2023-09-07T10:52:05;3.58;;;2.70;;
78778;SDS011;68121;52.404;5.318;2023-09-07T10:54:31;3.90;;;3.10;;
78778;SDS011;68121;52.404;5.318;2023-09-07T10:56:57;4.95;;;2.85;;
78778;SDS011;68121;52.404;5.318;2023-09-07T10:59:36;3.70;;;3.08;;
78778;SDS011;68121;52.404;5.318;2023-09-07T11:02:05;5.53;;;3.78;;
78778;SDS011;68121;52.404;5.318;2023-09-07T11:04:33;5.07;;;2.78;;
78778;SDS011;68121;52.404;5.318;2023-09-07T11:06:59;6.55;;;2.95;;
78778;SDS011;68121;52.404;5.318;2023-09-07T11:09:26;3.38;;;2.75;;
78778;SDS011;68121;52.404;5.318;2023-09-07T11:11:52;3.80;;;2.42;;
78778;SDS011;68121;52.404;5.318;2023-09-07T11:14:18;3.53;;;2.63;;
78778;SDS011;68121;52.404;5.318;2023-09-07T11:16:48;4.22;;;3.03;;
78778;SDS011;68121;52.404;5.318;2023-09-07T11:19:14;3.47;;;3.05;;
78778;SDS011;68121;52.404;5.318;2023-09-07T11:21:44;3.38;;;2.53;;
78778;SDS011;68121;52.404;5.318;2023-09-07T11:24:10;4.25;;;2.67;;
78778;SDS011;68121;52.404;5.318;2023-09-07T11:26:43;4.07;;;2.60;;
78778;SDS011;68121;52.404;5.318;2023-09-07T11:29:13;4.50;;;2.60;;
78778;SDS011;68121;52.404;5.318;2023-09-07T11:31:43;4.60;;;2.38;;
78778;SDS011;68121;52.404;5.318;2023-09-07T11:34:10;3.15;;;2.70;;
78778;SDS011;68121;52.404;5.318;2023-09-07T11:36:41;4.07;;;2.50;;
78778;SDS011;68121;52.404;5.318;2023-09-07T11:39:07;5.95;;;2.50;;
78778;SDS011;68121;52.404;5.318;2023-09-07T11:41:43;4.25;;;2.75;;
78778;SDS011;68121;52.404;5.318;2023-09-07T11:44:10;4.45;;;2.17;;
78778;SDS011;68121;52.404;5.318;2023-09-07T11:46:37;4.60;;;2.35;;
78778;SDS011;68121;52.404;5.318;2023-09-07T11:49:03;4.22;;;2.35;;
78778;SDS011;68121;52.404;5.318;2023-09-07T11:51:34;3.85;;;2.25;;
78778;SDS011;68121;52.404;5.318;2023-09-07T11:54:03;4.40;;;2.33;;
78778;SDS011;68121;52.404;5.318;2023-09-07T11:56:30;2.60;;;2.15;;
78778;SDS011;68121;52.404;5.318;2023-09-07T11:58:56;2.00;;;1.80;;
78778;SDS011;68121;52.404;5.318;2023-09-07T12:01:22;2.90;;;2.05;;
78778;SDS011;68121;52.404;5.318;2023-09-07T12:03:48;2.92;;;2.25;;
78778;SDS011;68121;52.404;5.318;2023-09-07T12:06:14;2.83;;;1.80;;
78778;SDS011;68121;52.404;5.318;2023-09-07T12:08:42;2.42;;;2.17;;
78778;SDS011;68121;52.404;5.318;2023-09-07T12:11:23;5.88;;;2.10;;
78778;SDS011;68121;52.404;5.318;2023-09-07T12:13:49;3.00;;;2.00;;
78778;SDS011;68121;52.404;5.318;2023-09-07T12:16:15;3.90;;;2.95;;
78778;SDS011;68121;52.404;5.318;2023-09-07T12:18:41;3.20;;;1.90;;
78778;SDS011;68121;52.404;5.318;2023-09-07T12:21:07;2.72;;;2.20;;
78778;SDS011;68121;52.404;5.318;2023-09-07T12:23:33;4.68;;;2.35;;
78778;SDS011;68121;52.404;5.318;2023-09-07T12:26:00;2.47;;;1.90;;
78778;SDS011;68121;52.404;5.318;2023-09-07T12:28:27;3.67;;;2.53;;
78778;SDS011;68121;52.404;5.318;2023-09-07T12:30:53;2.83;;;2.20;;
78778;SDS011;68121;52.404;5.318;2023-09-07T12:33:19;3.15;;;2.60;;
78778;SDS011;68121;52.404;5.318;2023-09-07T12:35:45;3.85;;;2.33;;
78778;SDS011;68121;52.404;5.318;2023-09-07T12:38:11;4.45;;;2.67;;
78778;SDS011;68121;52.404;5.318;2023-09-07T12:40:42;3.58;;;2.38;;
78778;SDS011;68121;52.404;5.318;2023-09-07T12:43:09;3.75;;;2.40;;
78778;SDS011;68121;52.404;5.318;2023-09-07T12:45:35;3.38;;;2.25;;
78778;SDS011;68121;52.404;5.318;2023-09-07T12:48:02;3.08;;;2.17;;
78778;SDS011;68121;52.404;5.318;2023-09-07T12:50:28;4.30;;;2.30;;
78778;SDS011;68121;52.404;5.318;2023-09-07T12:52:54;3.95;;;2.25;;
78778;SDS011;68121;52.404;5.318;2023-09-07T12:55:20;3.20;;;2.10;;
78778;SDS011;68121;52.404;5.318;2023-09-07T12:57:46;3.92;;;2.28;;
78778;SDS011;68121;52.404;5.318;2023-09-07T13:00:13;4.30;;;2.33;;
78778;SDS011;68121;52.404;5.318;2023-09-07T13:02:39;3.15;;;2.50;;
78778;SDS011;68121;52.404;5.318;2023-09-07T13:05:05;3.88;;;2.72;;
78778;SDS011;68121;52.404;5.318;2023-09-07T13:07:32;2.92;;;2.30;;
78778;SDS011;68121;52.404;5.318;2023-09-07T13:09:58;3.15;;;2.40;;
78778;SDS011;68121;52.404;5.318;2023-09-07T13:12:27;3.25;;;2.10;;
78778;SDS011;68121;52.404;5.318;2023-09-07T13:14:53;3.22;;;2.53;;
78778;SDS011;68121;52.404;5.318;2023-09-07T13:17:19;2.78;;;2.38;;
78778;SDS011;68121;52.404;5.318;2023-09-07T13:19:45;4.53;;;2.40;;
78778;SDS011;68121;52.404;5.318;2023-09-07T13:22:13;3.22;;;2.72;;
78778;SDS011;68121;52.404;5.318;2023-09-07T13:24:39;2.75;;;2.42;;
78778;SDS011;68121;52.404;5.318;2023-09-07T13:27:05;2.53;;;2.10;;
78778;SDS011;68121;52.404;5.318;2023-09-07T13:29:32;3.03;;;2.40;;
78778;SDS011;68121;52.404;5.318;2023-09-07T13:31:58;4.07;;;2.55;;
78778;SDS011;68121;52.404;5.318;2023-09-07T13:34:25;3.00;;;2.30;;
78778;SDS011;68121;52.404;5.318;2023-09-07T13:36:51;5.43;;;2.83;;
78778;SDS011;68121;52.404;5.318;2023-09-07T13:39:17;3.60;;;2.70;;
78778;SDS011;68121;52.404;5.318;2023-09-07T13:41:43;3.45;;;2.50;;
78778;SDS011;68121;52.404;5.318;2023-09-07T13:44:09;5.18;;;2.25;;
78778;SDS011;68121;52.404;5.318;2023-09-07T13:46:36;2.83;;;2.40;;
78778;SDS011;68121;52.404;5.318;2023-09-07T13:49:02;4.05;;;2.70;;
78778;SDS011;68121;52.404;5.318;2023-09-07T13:51:29;2.97;;;2.47;;
78778;SDS011;68121;52.404;5.318;2023-09-07T13:54:00;6.72;;;2.80;;
78778;SDS011;68121;52.404;5.318;2023-09-07T13:56:26;3.97;;;2.30;;
78778;SDS011;68121;52.404;5.318;2023-09-07T13:58:52;3.92;;;2.35;;
78778;SDS011;68121;52.404;5.318;2023-09-07T14:01:19;5.40;;;2.42;;
78778;SDS011;68121;52.404;5.318;2023-09-07T14:03:45;3.92;;;2.55;;
78778;SDS011;68121;52.404;5.318;2023-09-07T14:06:11;3.08;;;2.55;;
78778;SDS011;68121;52.404;5.318;2023-09-07T14:08:37;3.63;;;2.80;;
78778;SDS011;68121;52.404;5.318;2023-09-07T14:11:03;3.50;;;2.65;;
78778;SDS011;68121;52.404;5.318;2023-09-07T14:13:29;3.25;;;2.45;;
78778;SDS011;68121;52.404;5.318;2023-09-07T14:15:59;8.20;;;2.63;;
78778;SDS011;68121;52.404;5.318;2023-09-07T14:18:25;3.42;;;2.65;;
78778;SDS011;68121;52.404;5.318;2023-09-07T14:20:52;4.43;;;2.45;;
78778;SDS011;68121;52.404;5.318;2023-09-07T14:23:18;3.45;;;2.72;;
78778;SDS011;68121;52.404;5.318;2023-09-07T14:25:46;3.80;;;2.72;;
78778;SDS011;68121;52.404;5.318;2023-09-07T14:28:13;4.50;;;2.40;;
78778;SDS011;68121;52.404;5.318;2023-09-07T14:30:39;5.10;;;2.67;;
78778;SDS011;68121;52.404;5.318;2023-09-07T14:33:05;3.47;;;2.47;;
78778;SDS011;68121;52.404;5.318;2023-09-07T14:35:31;4.85;;;2.72;;
78778;SDS011;68121;52.404;5.318;2023-09-07T14:37:58;6.45;;;2.67;;
78778;SDS011;68121;52.404;5.318;2023-09-07T14:40:24;3.70;;;2.42;;
78778;SDS011;68121;52.404;5.318;2023-09-07T14:42:50;3.35;;;2.53;;
78778;SDS011;68121;52.404;5.318;2023-09-07T14:45:16;3.20;;;2.53;;
78778;SDS011;68121;52.404;5.318;2023-09-07T14:47:42;3.47;;;2.70;;